Pensacola Naval Air Station/Forrest Sherman field
KNPA : now visible

Airfield :











YOU CAN JOIN US ON...

 
LOGIN :

Register | Disclaimer

   EN    FR    IT 

 









Legend :    VFR   Marginal VFR   IFR   Intensive IFR   Very Intensive IFR
Visi :
Ceiling :
>= 8 km
>= 3000ft
5 to 8 km
1000 to 3000 ft
1500m to 5 km
500 to 1000 ft
800 to 1500m
200 to 500 ft
< 800m
< 200 ft
Symbols :   Thunderstorms  Fog  Heavy snow  Heavy precipitations  Wind > 20 kt







- Airport Elevation : 28 ft


KNPA - Pensacola Naval Air Station/Forrest Sherman field

CURRENT METAR :
  • 181556Z 11011KT 9SM BKN018 BKN035 23/21 A2993 RMK AO2 SLP136 CIG 015V023 T02330206

EXPIRED METARs :
  • 181520Z 13012KT 10SM BKN023 BKN180 BKN250 23/20 A2993 RMK AO2 T02330200
  • 181456Z 14010KT 10SM FEW030 BKN180 BKN250 24/21 A2992 RMK AO2 SLP134 T02390206 51025
  • 181356Z 16012KT 9SM FEW030 BKN180 BKN250 23/20 A2990 RMK AO2 SLP128 T02330200

TAF AMD TAF KNPA
Valid from the 18 at 15:00 until the 19 at 15:00 UTC


1815/1915 15012G20KT 9999 BKN020 BKN150 BKN250 QNH2977INS
TEMPO 1815/1821 SCT020 BKN150 BKN250
FM182300 17017G28KT 9999 VCSH BKN020 BKN050 OVC120 WSCONDS 6214506 QNH2964INS
TEMPO 1823/1904 BKN025
FM190400 19017G28KT 8000 TSRA OVC020CB WSCONDS 621406 QNH2960INS
TEMPO 1905/1908 VRB30G50KT 0800 +TSRA BKN007 OVC015CB
FM190900 33015G25KT 9999 VCSH OVC007 600000 540005 QNH2960INS
FM191400 33015G25KT 9999 BKN015 540005 QNH2973INS T25/1820Z T16/1912Z AMD 1521 FN20033
KZJX FIR / North America



MET'MAP, your aeronautical weather chart ! - Copyright ORBIFLY December 2007 - Disclaimer

ORBIFLY MET'MAP TEAM :

Programming & Development : Alexandra Zaïnal
Concept & Development : Baudouin d'Aumeries
Co-Development & Prog : Marc-Olivier Méhu
Technical & hardware support : Manuel Goepfert

Contact : metmap@orbifly.com




SOURCES & CREDITS :

   NOAA       Earth
Advisory